createdAt,value
2023-04-16T00:01:47.721Z,12.18
2023-04-16T00:04:14.559Z,6.18
2023-04-16T00:06:41.268Z,8.65
2023-04-16T00:09:08.162Z,9.48
2023-04-16T00:11:34.927Z,7.70
2023-04-16T00:14:01.692Z,9.77
2023-04-16T00:16:28.513Z,6.60
2023-04-16T00:18:55.108Z,5.70
2023-04-16T00:21:21.792Z,11.63
2023-04-16T00:23:48.451Z,7.38
2023-04-16T00:26:15.099Z,7.55
2023-04-16T00:28:41.765Z,12.77
2023-04-16T00:31:08.438Z,7.22
2023-04-16T00:33:35.130Z,6.25
2023-04-16T00:36:02.053Z,6.68
2023-04-16T00:38:30.417Z,7.38
2023-04-16T00:40:59.948Z,5.75
2023-04-16T00:43:27.217Z,5.60
2023-04-16T00:45:56.658Z,7.07
2023-04-16T00:48:24.777Z,8.43
2023-04-16T00:50:51.527Z,6.00
2023-04-16T00:53:18.313Z,4.82
2023-04-16T00:55:45.955Z,5.75
2023-04-16T00:58:12.784Z,8.35
2023-04-16T01:00:39.436Z,5.78
2023-04-16T01:03:06.322Z,6.30
2023-04-16T01:05:33.313Z,5.60
2023-04-16T01:08:01.191Z,7.82
2023-04-16T01:10:27.875Z,7.75
2023-04-16T01:12:54.564Z,5.53
2023-04-16T01:15:21.221Z,9.13
2023-04-16T01:17:48.304Z,6.85
2023-04-16T01:20:14.995Z,6.50
2023-04-16T01:22:41.631Z,6.22
2023-04-16T01:25:08.428Z,6.05
2023-04-16T01:27:35.068Z,7.10
2023-04-16T01:30:01.735Z,7.13
2023-04-16T01:32:31.445Z,5.47
2023-04-16T01:34:58.120Z,8.80
2023-04-16T01:37:24.832Z,10.13
2023-04-16T01:39:51.517Z,8.10
2023-04-16T01:42:18.119Z,7.80
2023-04-16T01:44:46.827Z,9.02
2023-04-16T01:47:13.463Z,5.00
2023-04-16T01:49:40.691Z,6.53
2023-04-16T01:52:08.505Z,7.47
2023-04-16T01:54:35.221Z,6.32
2023-04-16T01:57:01.942Z,6.50
2023-04-16T01:59:28.621Z,10.77
2023-04-16T02:01:55.702Z,6.53
2023-04-16T02:04:22.385Z,8.32
2023-04-16T02:06:48.955Z,8.07
2023-04-16T02:09:15.652Z,7.57
2023-04-16T02:11:42.307Z,8.07
2023-04-16T02:14:09.048Z,7.72
2023-04-16T02:16:35.781Z,10.20
2023-04-16T02:19:03.331Z,9.55
2023-04-16T02:21:30.057Z,6.72
2023-04-16T02:23:57.473Z,8.25
2023-04-16T02:26:24.171Z,6.88
2023-04-16T02:28:51.036Z,9.93
2023-04-16T02:31:19.584Z,13.20
2023-04-16T02:33:46.362Z,12.73
2023-04-16T02:36:13.036Z,9.90
2023-04-16T02:38:39.746Z,15.75
2023-04-16T02:41:06.444Z,13.38
2023-04-16T02:43:33.076Z,10.52
2023-04-16T02:45:59.739Z,8.02
2023-04-16T02:48:26.490Z,10.15
2023-04-16T02:50:53.066Z,11.43
2023-04-16T02:53:19.662Z,10.02
2023-04-16T02:55:53.794Z,8.85
2023-04-16T02:58:21.637Z,9.13
2023-04-16T03:00:48.391Z,7.47
2023-04-16T03:03:15.145Z,8.95
2023-04-16T03:05:42.170Z,9.43
2023-04-16T03:08:09.122Z,14.00
2023-04-16T03:10:36.237Z,13.38
2023-04-16T03:13:03.553Z,13.57
2023-04-16T03:15:30.988Z,11.93
2023-04-16T03:17:57.975Z,12.43
2023-04-16T03:20:24.658Z,12.45
2023-04-16T03:22:54.541Z,13.93
2023-04-16T03:25:21.174Z,9.35
2023-04-16T03:27:47.834Z,11.63
2023-04-16T03:30:14.873Z,12.85
2023-04-16T03:32:41.930Z,11.60
2023-04-16T03:35:09.492Z,9.05
2023-04-16T03:37:36.278Z,8.93
2023-04-16T03:40:03.973Z,11.70
2023-04-16T03:42:30.728Z,10.18
2023-04-16T03:44:57.422Z,9.00
2023-04-16T03:47:24.183Z,9.63
2023-04-16T03:49:50.970Z,15.27
2023-04-16T03:52:17.603Z,15.20
2023-04-16T03:54:44.202Z,10.65
2023-04-16T03:57:10.876Z,13.13
2023-04-16T03:59:37.499Z,11.13
2023-04-16T04:02:04.228Z,16.10
2023-04-16T04:04:31.239Z,16.70
2023-04-16T04:06:57.964Z,13.63
2023-04-16T04:09:24.609Z,12.07
2023-04-16T04:11:51.270Z,16.70
2023-04-16T04:14:17.904Z,16.13
2023-04-16T04:16:44.921Z,18.88
2023-04-16T04:19:13.463Z,17.15
2023-04-16T04:21:40.347Z,13.20
2023-04-16T04:24:06.953Z,14.63
2023-04-16T04:26:33.633Z,22.20
2023-04-16T04:29:00.427Z,17.73
2023-04-16T04:31:27.206Z,18.45
2023-04-16T04:33:53.912Z,14.93
2023-04-16T04:36:20.552Z,16.42
2023-04-16T04:38:47.338Z,24.60
2023-04-16T04:41:13.985Z,24.70
2023-04-16T04:43:40.612Z,16.48
2023-04-16T04:46:07.279Z,22.38
2023-04-16T04:48:33.924Z,19.10
2023-04-16T04:51:02.440Z,24.58
2023-04-16T04:53:30.907Z,26.50
2023-04-16T04:56:08.945Z,17.48
2023-04-16T04:58:38.684Z,26.90
2023-04-16T05:01:05.949Z,23.40
2023-04-16T05:03:32.852Z,24.35
2023-04-16T05:05:59.602Z,24.65
2023-04-16T05:08:26.193Z,30.98
2023-04-16T05:10:52.824Z,29.95
2023-04-16T05:13:19.450Z,21.42
2023-04-16T05:15:46.134Z,26.88
2023-04-16T05:18:12.794Z,29.38
2023-04-16T05:20:39.390Z,28.23
2023-04-16T05:23:06.124Z,27.05
2023-04-16T05:25:32.868Z,19.35
2023-04-16T05:27:59.567Z,30.60
2023-04-16T05:30:26.200Z,19.58
2023-04-16T05:32:52.847Z,21.90
2023-04-16T05:35:19.552Z,21.60
2023-04-16T05:37:46.184Z,22.80
2023-04-16T05:40:14.052Z,23.23
2023-04-16T05:42:40.867Z,21.45
2023-04-16T05:45:08.150Z,21.52
2023-04-16T05:47:34.851Z,26.58
2023-04-16T05:50:01.532Z,24.63
2023-04-16T05:52:28.228Z,25.35
2023-04-16T05:54:55.114Z,27.67
2023-04-16T05:57:21.733Z,27.98
2023-04-16T05:59:48.384Z,27.38
2023-04-16T06:02:15.172Z,21.58
2023-04-16T06:04:41.910Z,20.17
2023-04-16T06:07:08.646Z,19.58
2023-04-16T06:09:35.961Z,25.85
2023-04-16T06:12:02.724Z,20.55
2023-04-16T06:14:29.383Z,19.55
2023-04-16T06:16:56.354Z,19.05
2023-04-16T06:19:23.037Z,24.20
2023-04-16T06:21:49.955Z,25.83
2023-04-16T06:24:18.358Z,19.20
2023-04-16T06:26:45.023Z,20.17
2023-04-16T06:29:11.965Z,18.77
2023-04-16T06:31:38.705Z,27.52
2023-04-16T06:34:05.306Z,23.30
2023-04-16T06:36:31.977Z,27.60
2023-04-16T06:38:58.654Z,19.08
2023-04-16T06:41:26.673Z,20.33
2023-04-16T06:43:53.350Z,19.35
2023-04-16T06:46:20.058Z,20.90
2023-04-16T06:48:47.027Z,21.38
2023-04-16T06:51:13.698Z,20.05
2023-04-16T06:53:40.498Z,23.30
2023-04-16T06:56:07.471Z,20.80
2023-04-16T06:58:34.193Z,17.25
2023-04-16T07:01:02.544Z,20.83
2023-04-16T07:03:29.356Z,21.40
2023-04-16T07:05:56.764Z,18.98
2023-04-16T07:08:23.417Z,20.70
2023-04-16T07:10:50.175Z,24.17
2023-04-16T07:13:18.498Z,15.82
2023-04-16T07:15:45.334Z,21.33
2023-04-16T07:18:11.978Z,21.75
2023-04-16T07:20:38.711Z,20.05
2023-04-16T07:23:05.373Z,21.90
2023-04-16T07:25:32.050Z,23.20
2023-04-16T07:27:58.780Z,20.48
2023-04-16T07:30:25.661Z,24.75
2023-04-16T07:32:52.359Z,19.23
2023-04-16T07:35:19.040Z,17.85
2023-04-16T07:37:45.676Z,15.68
2023-04-16T07:40:12.514Z,21.15
2023-04-16T07:42:39.267Z,15.60
2023-04-16T07:45:06.500Z,19.33
2023-04-16T07:47:33.223Z,17.15
2023-04-16T07:49:59.890Z,14.23
2023-04-16T07:52:26.761Z,17.10
2023-04-16T07:54:53.518Z,12.70
2023-04-16T07:57:21.092Z,17.55
2023-04-16T07:59:47.727Z,15.20
2023-04-16T08:02:16.461Z,15.82
2023-04-16T08:04:43.924Z,12.30
2023-04-16T08:07:10.796Z,16.38
2023-04-16T08:09:51.377Z,12.95
2023-04-16T08:12:18.198Z,19.67
2023-04-16T08:14:45.877Z,13.07
2023-04-16T08:17:13.230Z,13.73
2023-04-16T08:19:39.873Z,15.80
2023-04-16T08:22:06.702Z,11.77
2023-04-16T08:24:33.536Z,12.02
2023-04-16T08:27:08.134Z,14.05
2023-04-16T08:29:44.497Z,12.45
2023-04-16T08:32:11.559Z,16.20
2023-04-16T08:34:38.243Z,10.85
2023-04-16T08:37:04.919Z,12.63
2023-04-16T08:39:31.666Z,11.02
2023-04-16T08:41:58.978Z,10.88
2023-04-16T08:44:33.668Z,10.32
2023-04-16T08:47:01.028Z,9.50
2023-04-16T08:49:28.128Z,15.38
2023-04-16T08:51:56.317Z,8.25
2023-04-16T08:54:37.637Z,10.55
2023-04-16T08:57:06.742Z,9.30
2023-04-16T08:59:34.028Z,11.45
2023-04-16T09:02:01.870Z,9.52
2023-04-16T09:04:29.425Z,10.10
2023-04-16T09:06:57.394Z,8.60
2023-04-16T09:09:26.467Z,8.43
2023-04-16T09:11:53.743Z,9.18
2023-04-16T09:14:20.946Z,8.02
2023-04-16T09:16:48.340Z,7.60
2023-04-16T09:19:15.684Z,8.40
2023-04-16T09:21:45.572Z,8.23
2023-04-16T09:24:12.317Z,8.82
2023-04-16T09:26:39.020Z,8.50
2023-04-16T09:29:05.653Z,7.43
2023-04-16T09:31:32.410Z,6.65
2023-04-16T09:34:03.389Z,7.10
2023-04-16T09:36:31.221Z,8.63
2023-04-16T09:38:58.298Z,9.40
2023-04-16T09:41:30.318Z,7.70
2023-04-16T09:44:04.434Z,6.00
2023-04-16T09:46:34.364Z,10.05
2023-04-16T09:49:13.469Z,7.25
2023-04-16T09:51:45.095Z,7.10
2023-04-16T09:54:12.166Z,7.65
2023-04-16T09:56:43.181Z,8.77
2023-04-16T09:59:20.905Z,11.13
2023-04-16T10:01:49.516Z,8.30
2023-04-16T10:04:17.160Z,7.32
2023-04-16T10:06:44.124Z,8.68
2023-04-16T10:09:11.148Z,8.05
2023-04-16T10:11:38.219Z,8.73
2023-04-16T10:14:05.390Z,6.10
2023-04-16T10:16:33.021Z,9.30
2023-04-16T10:18:59.992Z,7.97
2023-04-16T10:21:33.841Z,8.57
2023-04-16T10:24:01.733Z,9.48
2023-04-16T10:26:30.539Z,10.30
2023-04-16T10:28:58.839Z,8.38
2023-04-16T10:31:26.979Z,12.88
2023-04-16T10:33:54.427Z,11.82
2023-04-16T10:36:26.423Z,12.27
2023-04-16T10:38:57.631Z,8.07
2023-04-16T10:41:26.642Z,14.55
2023-04-16T10:44:03.240Z,15.82
2023-04-16T10:46:40.956Z,12.15
2023-04-16T10:49:23.971Z,12.05
2023-04-16T10:51:58.389Z,13.43
2023-04-16T10:54:30.262Z,16.05
2023-04-16T10:59:25.751Z,15.80
2023-04-16T11:01:55.715Z,15.20
2023-04-16T11:04:25.384Z,12.98
2023-04-16T11:07:16.477Z,12.15
2023-04-16T11:10:05.276Z,15.48
2023-04-16T11:12:39.939Z,9.38
2023-04-16T11:15:19.169Z,13.85
2023-04-16T11:17:52.065Z,15.00
2023-04-16T11:20:23.919Z,14.32
2023-04-16T11:25:29.726Z,15.50
2023-04-16T11:27:58.895Z,15.38
2023-04-16T11:30:34.077Z,16.48
2023-04-16T11:33:09.540Z,17.63
2023-04-16T11:35:36.417Z,24.88
2023-04-16T11:38:03.027Z,19.23
2023-04-16T11:40:31.069Z,16.02
2023-04-16T11:43:12.854Z,17.83
2023-04-16T11:45:39.515Z,17.63
2023-04-16T11:48:06.804Z,15.82
2023-04-16T11:50:34.464Z,15.32
2023-04-16T11:53:05.419Z,14.05
2023-04-16T11:55:32.165Z,16.67
2023-04-16T11:58:12.131Z,19.33
2023-04-16T12:00:38.843Z,17.10
2023-04-16T12:03:05.650Z,17.48
2023-04-16T12:05:40.305Z,24.67
2023-04-16T12:08:09.535Z,21.10
2023-04-16T12:10:38.515Z,18.70
2023-04-16T12:13:15.006Z,20.60
2023-04-16T12:15:48.224Z,13.70
2023-04-16T12:18:18.565Z,12.15
2023-04-16T12:20:46.212Z,16.98
2023-04-16T12:23:33.375Z,16.67
2023-04-16T12:26:10.440Z,13.48
2023-04-16T12:28:38.492Z,17.55
2023-04-16T12:31:05.976Z,19.67
2023-04-16T12:33:32.824Z,20.20
2023-04-16T12:35:59.581Z,21.83
2023-04-16T12:38:27.158Z,18.42
2023-04-16T12:40:56.845Z,15.90
2023-04-16T12:43:24.036Z,15.55
2023-04-16T12:45:50.942Z,19.95
2023-04-16T12:48:17.591Z,17.00
2023-04-16T12:50:44.500Z,19.17
2023-04-16T12:53:11.766Z,18.92
2023-04-16T12:55:38.428Z,16.30
2023-04-16T12:58:05.086Z,13.75
2023-04-16T13:00:31.709Z,16.05
2023-04-16T13:02:58.541Z,14.38
2023-04-16T13:05:25.657Z,16.60
2023-04-16T13:07:52.408Z,15.55
2023-04-16T13:10:21.899Z,14.50
2023-04-16T13:12:48.954Z,16.55
2023-04-16T13:15:15.732Z,17.80
2023-04-16T13:17:42.374Z,16.70
2023-04-16T13:20:09.627Z,17.35
2023-04-16T13:22:36.385Z,13.27
2023-04-16T13:25:03.210Z,14.35
2023-04-16T13:27:32.001Z,17.17
2023-04-16T13:29:58.671Z,14.70
2023-04-16T13:32:25.462Z,15.05
2023-04-16T13:34:52.171Z,15.68
2023-04-16T13:37:18.820Z,18.70
2023-04-16T13:39:45.521Z,18.98
2023-04-16T13:42:12.119Z,18.02
2023-04-16T13:44:38.741Z,19.77
2023-04-16T13:47:05.504Z,18.13
2023-04-16T13:49:35.496Z,17.85
2023-04-16T13:52:02.502Z,19.25
2023-04-16T13:54:29.222Z,23.52
2023-04-16T13:56:56.011Z,18.80
2023-04-16T13:59:22.780Z,22.05
2023-04-16T14:01:49.538Z,18.33
2023-04-16T14:04:16.355Z,21.48
2023-04-16T14:06:43.068Z,19.65
2023-04-16T14:09:10.880Z,22.13
2023-04-16T14:11:37.869Z,17.85
2023-04-16T14:14:04.976Z,17.55
2023-04-16T14:16:31.659Z,20.00
2023-04-16T14:18:58.279Z,22.40
2023-04-16T14:21:24.953Z,24.75
2023-04-16T14:23:51.558Z,87.68
2023-04-16T14:26:18.203Z,23.75
2023-04-16T14:28:45.047Z,18.02
2023-04-16T14:31:11.695Z,19.92
2023-04-16T14:33:38.454Z,20.98
2023-04-16T14:36:05.596Z,19.48
2023-04-16T14:38:32.499Z,19.05
2023-04-16T14:41:00.342Z,20.15
2023-04-16T14:43:27.245Z,16.90
2023-04-16T14:45:53.948Z,24.27
2023-04-16T14:48:21.066Z,23.60
2023-04-16T14:50:47.696Z,23.27
2023-04-16T14:53:14.373Z,23.33
2023-04-16T14:55:41.037Z,16.98
2023-04-16T14:58:07.684Z,18.10
2023-04-16T15:00:37.523Z,17.70
2023-04-16T15:03:04.955Z,18.83
2023-04-16T15:05:31.960Z,17.20
2023-04-16T15:07:58.641Z,28.67
2023-04-16T15:10:25.244Z,20.23
2023-04-16T15:12:51.940Z,20.20
2023-04-16T15:15:18.655Z,25.02
2023-04-16T15:17:45.692Z,13.75
2023-04-16T15:20:12.988Z,19.33
2023-04-16T15:22:40.092Z,15.68
2023-04-16T15:25:07.202Z,14.82
2023-04-16T15:27:33.868Z,17.55
2023-04-16T15:30:00.848Z,19.02
2023-04-16T15:32:27.573Z,16.52
2023-04-16T15:34:54.220Z,17.90
2023-04-16T15:37:20.829Z,24.80
2023-04-16T15:39:47.578Z,14.32
2023-04-16T15:42:14.430Z,17.02
2023-04-16T15:44:41.139Z,16.85
2023-04-16T15:47:08.699Z,16.95
2023-04-16T15:49:36.019Z,22.15
2023-04-16T15:52:03.078Z,19.23
2023-04-16T15:54:30.944Z,22.05
2023-04-16T15:56:59.104Z,17.10
2023-04-16T15:59:29.049Z,19.13
2023-04-16T16:01:57.293Z,14.88
2023-04-16T16:04:26.242Z,17.40
2023-04-16T16:06:53.872Z,22.08
2023-04-16T16:09:25.753Z,19.50
2023-04-16T16:11:54.359Z,19.50
2023-04-16T16:14:22.008Z,16.83
2023-04-16T16:16:48.672Z,24.00
2023-04-16T16:19:15.320Z,39.75
2023-04-16T16:21:42.070Z,68.47
2023-04-16T16:24:09.406Z,57.33
2023-04-16T16:26:36.126Z,16.92
2023-04-16T16:29:02.836Z,17.02
2023-04-16T16:31:29.503Z,42.83
2023-04-16T16:33:56.214Z,62.22
2023-04-16T16:36:22.887Z,36.03
2023-04-16T16:38:49.540Z,42.95
2023-04-16T16:41:16.249Z,20.42
2023-04-16T16:43:43.097Z,19.00
2023-04-16T16:46:09.967Z,24.00
2023-04-16T16:48:36.725Z,19.48
2023-04-16T16:51:03.517Z,18.48
2023-04-16T16:53:30.115Z,25.95
2023-04-16T16:55:56.726Z,20.65
2023-04-16T16:58:23.328Z,18.05
2023-04-16T17:00:50.063Z,21.05
2023-04-16T17:03:17.044Z,19.05
2023-04-16T17:05:43.841Z,22.42
2023-04-16T17:08:10.637Z,25.38
2023-04-16T17:10:37.270Z,29.50
2023-04-16T17:13:03.866Z,19.73
2023-04-16T17:15:30.518Z,22.92
2023-04-16T17:17:57.285Z,28.15
2023-04-16T17:20:23.998Z,28.75
2023-04-16T17:22:51.213Z,24.50
2023-04-16T17:25:18.070Z,23.55
2023-04-16T17:27:44.718Z,20.92
2023-04-16T17:30:11.618Z,24.00
2023-04-16T17:32:38.279Z,21.67
2023-04-16T17:35:06.777Z,23.33
2023-04-16T17:37:33.502Z,27.35
2023-04-16T17:40:00.305Z,22.25
2023-04-16T17:42:26.963Z,21.38
2023-04-16T17:44:53.658Z,21.63
2023-04-16T17:47:20.444Z,25.60
2023-04-16T17:49:47.192Z,23.55
2023-04-16T17:52:13.881Z,21.40
2023-04-16T17:54:40.494Z,35.05
2023-04-16T17:57:07.136Z,33.58
2023-04-16T17:59:34.668Z,33.60
2023-04-16T18:02:01.438Z,54.53
2023-04-16T18:04:28.374Z,194.10
2023-04-16T18:06:55.199Z,49.65
2023-04-16T18:09:21.840Z,22.85
2023-04-16T18:11:48.570Z,31.92
2023-04-16T18:14:19.770Z,21.33
2023-04-16T18:16:47.822Z,26.63
2023-04-16T18:19:15.965Z,22.63
2023-04-16T18:21:43.281Z,30.40
2023-04-16T18:24:10.476Z,30.42
2023-04-16T18:26:37.665Z,24.48
2023-04-16T18:29:05.546Z,21.23
2023-04-16T18:31:32.416Z,57.55
2023-04-16T18:33:59.283Z,27.75
2023-04-16T18:36:26.806Z,66.65
2023-04-16T18:39:01.585Z,54.42
2023-04-16T18:41:29.981Z,54.65
2023-04-16T18:43:57.013Z,29.05
2023-04-16T18:46:23.727Z,28.52
2023-04-16T18:48:50.594Z,24.52
2023-04-16T18:51:17.271Z,25.42
2023-04-16T18:53:45.592Z,20.73
2023-04-16T18:56:12.833Z,23.27
2023-04-16T18:58:39.545Z,22.95
2023-04-16T19:01:10.905Z,27.77
2023-04-16T19:06:05.823Z,22.77
2023-04-16T19:08:32.481Z,23.70
2023-04-16T19:10:59.248Z,22.25
2023-04-16T19:13:26.015Z,32.38
2023-04-16T19:15:59.244Z,29.50
2023-04-16T19:18:26.448Z,24.42
2023-04-16T19:20:59.751Z,24.20
2023-04-16T19:23:26.901Z,25.58
2023-04-16T19:25:53.636Z,27.98
2023-04-16T19:28:20.280Z,21.25
2023-04-16T19:30:50.768Z,27.98
2023-04-16T19:33:17.954Z,28.58
2023-04-16T19:35:44.877Z,24.33
2023-04-16T19:38:11.543Z,26.15
2023-04-16T19:40:38.554Z,24.67
2023-04-16T19:43:05.317Z,28.67
2023-04-16T19:45:32.069Z,24.88
2023-04-16T19:47:58.965Z,28.90
2023-04-16T19:50:25.602Z,26.13
2023-04-16T19:52:52.309Z,32.17
2023-04-16T19:55:19.148Z,32.63
2023-04-16T19:57:47.937Z,29.13
2023-04-16T20:00:14.936Z,31.95
2023-04-16T20:02:41.739Z,32.92
2023-04-16T20:05:09.104Z,35.67
2023-04-16T20:07:35.788Z,34.65
2023-04-16T20:10:02.938Z,30.67
2023-04-16T20:12:29.682Z,29.17
2023-04-16T20:14:56.342Z,35.08
2023-04-16T20:17:23.178Z,29.65
2023-04-16T20:19:51.101Z,31.25
2023-04-16T20:22:18.634Z,30.15
2023-04-16T20:24:47.885Z,29.33
2023-04-16T20:27:15.277Z,27.27
2023-04-16T20:29:42.337Z,35.60
2023-04-16T20:32:09.067Z,28.20
2023-04-16T20:34:36.711Z,33.35
2023-04-16T20:37:03.985Z,34.17
2023-04-16T20:39:34.205Z,30.50
2023-04-16T20:42:04.004Z,33.38
2023-04-16T20:44:40.395Z,37.05
2023-04-16T20:47:08.095Z,31.67
2023-04-16T20:49:34.819Z,30.80
2023-04-16T20:52:02.521Z,33.13
2023-04-16T20:54:29.933Z,31.23
2023-04-16T20:56:57.376Z,32.72
2023-04-16T20:59:25.269Z,34.47
2023-04-16T21:01:52.225Z,33.72
2023-04-16T21:04:19.098Z,36.38
2023-04-16T21:06:46.086Z,31.52
2023-04-16T21:09:13.301Z,29.77
2023-04-16T21:11:40.345Z,36.03
2023-04-16T21:14:07.054Z,29.92
2023-04-16T21:16:33.730Z,30.08
2023-04-16T21:19:00.436Z,34.47
2023-04-16T21:21:27.500Z,29.83
2023-04-16T21:23:54.217Z,33.85
2023-04-16T21:26:21.259Z,29.90
2023-04-16T21:28:48.197Z,33.00
2023-04-16T21:31:15.028Z,30.42
2023-04-16T21:33:41.785Z,30.63
2023-04-16T21:36:08.541Z,27.42
2023-04-16T21:38:35.301Z,29.33
2023-04-16T21:41:02.100Z,30.20
2023-04-16T21:43:32.469Z,27.08
2023-04-16T21:45:59.720Z,35.40
2023-04-16T21:48:27.012Z,28.50
2023-04-16T21:50:58.192Z,27.58
2023-04-16T21:53:25.901Z,33.47
2023-04-16T21:55:52.492Z,28.90
2023-04-16T21:58:19.086Z,28.02
2023-04-16T22:00:47.143Z,29.05
2023-04-16T22:03:14.179Z,27.73
2023-04-16T22:05:41.027Z,31.85
2023-04-16T22:08:23.630Z,28.23
2023-04-16T22:10:51.163Z,29.75
2023-04-16T22:13:17.957Z,27.75
2023-04-16T22:15:44.593Z,31.48
2023-04-16T22:18:11.432Z,28.08
2023-04-16T22:20:38.903Z,31.48
2023-04-16T22:23:06.517Z,29.65
2023-04-16T22:25:33.251Z,27.17
2023-04-16T22:28:01.459Z,30.13
2023-04-16T22:30:28.202Z,25.30
2023-04-16T22:32:55.072Z,27.48
2023-04-16T22:35:21.814Z,31.98
2023-04-16T22:37:48.408Z,35.40
2023-04-16T22:40:15.758Z,33.67
2023-04-16T22:42:42.685Z,32.95
2023-04-16T22:45:09.744Z,37.85
2023-04-16T22:47:36.506Z,30.27
2023-04-16T22:50:03.330Z,30.65
2023-04-16T22:52:30.031Z,31.27
2023-04-16T22:54:56.749Z,33.47
2023-04-16T22:57:25.571Z,36.00
2023-04-16T22:59:53.124Z,31.77
2023-04-16T23:02:20.630Z,32.17
2023-04-16T23:04:47.913Z,32.65
2023-04-16T23:07:15.454Z,35.67
2023-04-16T23:09:42.510Z,38.85
2023-04-16T23:12:09.279Z,34.05
2023-04-16T23:14:36.962Z,33.42
2023-04-16T23:17:03.764Z,32.55
2023-04-16T23:19:31.606Z,35.70
2023-04-16T23:21:58.475Z,32.15
2023-04-16T23:24:25.169Z,36.17
2023-04-16T23:26:52.438Z,32.17
2023-04-16T23:29:19.952Z,35.55
2023-04-16T23:31:46.746Z,31.23
2023-04-16T23:34:13.497Z,36.08
2023-04-16T23:36:40.744Z,33.67
2023-04-16T23:39:07.358Z,33.47
2023-04-16T23:41:34.402Z,35.67
2023-04-16T23:44:01.053Z,33.55
2023-04-16T23:46:27.768Z,34.55
2023-04-16T23:48:55.284Z,37.10
2023-04-16T23:51:22.161Z,33.42
2023-04-16T23:53:48.874Z,32.97
2023-04-16T23:56:15.871Z,35.78
2023-04-16T23:58:42.579Z,33.88
